Time;durP1;ratioP1;P1;durP2;ratioP2;P2;SDS_P1;SDS_P2;PMS_P1;PMS_P2;Temp;Humidity;BMP_temperature;BMP_pressure;BME280_temperature;BME280_humidity;BME280_pressure;Samples;Min_cycle;Max_cycle;Signal;HPM_P1;HPM_P2
2023/07/25 00:00:54;;;;;;;3.35;2.00;;;;;;;;;;5000665;28;20072;-73
2023/07/25 00:03:20;;;;;;;2.65;2.20;;;;;;;;;;5005278;28;20053;-76
2023/07/25 00:05:45;;;;;;;9.95;2.30;;;;;;;;;;5000886;28;20046;-78
2023/07/25 00:08:11;;;;;;;2.20;2.00;;;;;;;;;;5000055;28;20050;-77
2023/07/25 00:10:36;;;;;;;3.17;1.95;;;;;;;;;;5004904;28;20056;-76
2023/07/25 00:13:01;;;;;;;2.92;2.38;;;;;;;;;;5002412;28;20061;-74
2023/07/25 00:15:27;;;;;;;4.60;2.25;;;;;;;;;;4998837;28;20076;-74
2023/07/25 00:17:52;;;;;;;3.15;2.38;;;;;;;;;;4999168;28;20050;-74
2023/07/25 00:20:18;;;;;;;3.97;2.17;;;;;;;;;;4999377;28;20053;-74
2023/07/25 00:22:43;;;;;;;3.28;2.13;;;;;;;;;;5001306;28;20141;-74
2023/07/25 00:25:09;;;;;;;3.08;1.92;;;;;;;;;;5000747;28;20132;-73
2023/07/25 00:27:35;;;;;;;3.85;2.00;;;;;;;;;;5004775;28;20041;-74
2023/07/25 00:30:01;;;;;;;2.60;2.05;;;;;;;;;;4999917;28;20050;-77
2023/07/25 00:32:27;;;;;;;13.32;2.08;;;;;;;;;;5000864;28;20065;-75
2023/07/25 00:34:52;;;;;;;5.53;2.20;;;;;;;;;;5006197;28;20081;-76
2023/07/25 00:37:18;;;;;;;2.17;1.98;;;;;;;;;;5010381;28;20060;-77
2023/07/25 00:39:43;;;;;;;5.40;2.13;;;;;;;;;;5003464;28;20042;-74
2023/07/25 00:42:09;;;;;;;2.20;2.00;;;;;;;;;;5003827;28;20108;-76
2023/07/25 00:44:34;;;;;;;2.50;2.30;;;;;;;;;;5000041;28;20100;-74
2023/07/25 00:47:00;;;;;;;3.28;2.20;;;;;;;;;;4999298;28;20402;-74
2023/07/25 00:49:25;;;;;;;6.32;2.38;;;;;;;;;;5004908;28;20149;-73
2023/07/25 00:51:51;;;;;;;3.10;2.58;;;;;;;;;;5000735;28;20038;-73
2023/07/25 00:54:16;;;;;;;8.45;2.55;;;;;;;;;;4998232;28;20410;-75
2023/07/25 00:56:42;;;;;;;3.15;2.65;;;;;;;;;;5012670;28;20052;-75
2023/07/25 00:59:07;;;;;;;3.50;2.45;;;;;;;;;;5012216;28;20057;-73
2023/07/25 01:01:33;;;;;;;3.00;2.28;;;;;;;;;;5010016;28;20084;-73
2023/07/25 01:03:59;;;;;;;6.18;3.00;;;;;;;;;;5004588;28;20049;-73
2023/07/25 01:06:25;;;;;;;6.07;2.33;;;;;;;;;;5006220;28;20689;-74
2023/07/25 01:08:52;;;;;;;2.33;2.03;;;;;;;;;;5007061;28;20077;-75
2023/07/25 01:11:19;;;;;;;7.55;2.45;;;;;;;;;;5007846;28;20073;-74
2023/07/25 01:13:45;;;;;;;4.65;2.25;;;;;;;;;;5007924;28;21093;-77
2023/07/25 01:16:15;;;;;;;4.40;2.25;;;;;;;;;;5008878;28;20041;-74
2023/07/25 01:18:42;;;;;;;5.10;1.85;;;;;;;;;;5012282;28;20120;-71
2023/07/25 01:21:07;;;;;;;5.80;2.20;;;;;;;;;;5008679;28;20106;-71
2023/07/25 01:23:33;;;;;;;5.57;2.30;;;;;;;;;;5010590;28;20171;-75
2023/07/25 01:25:59;;;;;;;3.28;2.33;;;;;;;;;;5011500;28;20913;-73
2023/07/25 01:28:25;;;;;;;2.42;2.10;;;;;;;;;;5001627;28;20843;-77
2023/07/25 01:30:50;;;;;;;3.70;2.28;;;;;;;;;;4998466;28;20212;-71
2023/07/25 01:33:16;;;;;;;7.82;2.50;;;;;;;;;;5017236;28;20933;-72
2023/07/25 01:35:41;;;;;;;3.10;2.22;;;;;;;;;;5014292;28;20517;-77
2023/07/25 01:38:07;;;;;;;3.03;2.50;;;;;;;;;;5030591;28;20060;-72
2023/07/25 01:40:32;;;;;;;4.00;2.47;;;;;;;;;;5011748;28;20153;-72
2023/07/25 01:42:58;;;;;;;6.05;2.33;;;;;;;;;;5013497;28;20137;-75
2023/07/25 01:45:23;;;;;;;6.57;2.25;;;;;;;;;;5014902;28;20062;-72
2023/07/25 01:47:49;;;;;;;4.30;2.03;;;;;;;;;;5012216;28;20052;-76
2023/07/25 01:50:16;;;;;;;3.58;2.33;;;;;;;;;;5013702;28;20107;-72
2023/07/25 01:52:41;;;;;;;2.53;2.03;;;;;;;;;;5010955;28;20053;-75
2023/07/25 01:55:07;;;;;;;3.88;2.05;;;;;;;;;;5018170;28;20084;-72
2023/07/25 01:57:32;;;;;;;2.33;2.13;;;;;;;;;;5015013;28;20046;-73
2023/07/25 01:59:58;;;;;;;3.88;2.10;;;;;;;;;;5011405;28;20689;-76
2023/07/25 02:02:23;;;;;;;3.90;2.28;;;;;;;;;;5008515;28;20177;-76
2023/07/25 02:04:49;;;;;;;2.80;2.20;;;;;;;;;;5018323;28;20045;-71
2023/07/25 02:07:14;;;;;;;3.13;2.00;;;;;;;;;;5001658;28;20061;-73
2023/07/25 02:09:40;;;;;;;4.18;2.20;;;;;;;;;;5001923;28;20084;-75
2023/07/25 02:12:07;;;;;;;8.32;2.80;;;;;;;;;;5025798;28;20168;-71
2023/07/25 02:14:32;;;;;;;5.40;2.50;;;;;;;;;;5008336;28;20065;-72
2023/07/25 02:16:58;;;;;;;4.03;2.25;;;;;;;;;;5005812;28;20100;-71
2023/07/25 02:19:23;;;;;;;2.55;1.88;;;;;;;;;;5003043;28;20075;-71
2023/07/25 02:21:49;;;;;;;4.65;2.67;;;;;;;;;;5002132;28;20038;-73
2023/07/25 02:24:14;;;;;;;3.17;2.38;;;;;;;;;;5002687;28;20473;-75
2023/07/25 02:26:40;;;;;;;2.85;2.42;;;;;;;;;;5001778;28;20123;-72
2023/07/25 02:29:06;;;;;;;5.97;2.40;;;;;;;;;;5002495;28;20510;-75
2023/07/25 02:31:31;;;;;;;3.30;2.00;;;;;;;;;;5003384;28;20056;-76
2023/07/25 02:33:57;;;;;;;2.55;2.30;;;;;;;;;;5001247;28;20046;-71
2023/07/25 02:36:22;;;;;;;3.05;2.50;;;;;;;;;;5003228;28;20045;-72
2023/07/25 02:38:48;;;;;;;3.05;2.45;;;;;;;;;;5002570;28;20076;-73
2023/07/25 02:41:15;;;;;;;4.78;2.50;;;;;;;;;;5004272;28;20531;-72
2023/07/25 02:43:41;;;;;;;5.32;2.70;;;;;;;;;;5004919;28;20569;-71
2023/07/25 02:46:06;;;;;;;3.58;2.75;;;;;;;;;;5004610;28;20048;-74
2023/07/25 02:48:31;;;;;;;3.60;2.25;;;;;;;;;;5007947;28;20149;-72
2023/07/25 02:50:57;;;;;;;3.80;2.40;;;;;;;;;;5013167;28;20489;-71
2023/07/25 02:53:22;;;;;;;3.75;2.90;;;;;;;;;;5004757;28;20041;-71
2023/07/25 02:55:48;;;;;;;2.90;2.33;;;;;;;;;;5004530;28;20045;-71
2023/07/25 02:58:13;;;;;;;3.22;2.33;;;;;;;;;;5005444;28;22816;-74
2023/07/25 03:00:39;;;;;;;2.67;2.47;;;;;;;;;;5003818;28;20053;-72
2023/07/25 03:03:04;;;;;;;3.00;2.47;;;;;;;;;;5004929;28;20044;-71
2023/07/25 03:05:30;;;;;;;5.68;2.28;;;;;;;;;;5006797;28;20041;-73
2023/07/25 03:07:58;;;;;;;4.90;2.67;;;;;;;;;;5001762;28;20072;-73
2023/07/25 03:10:23;;;;;;;3.15;2.55;;;;;;;;;;5002475;28;20138;-72
2023/07/25 03:12:49;;;;;;;6.82;2.20;;;;;;;;;;5016959;28;20136;-71
2023/07/25 03:15:15;;;;;;;4.88;2.25;;;;;;;;;;5003307;28;20432;-71
2023/07/25 03:17:40;;;;;;;2.78;2.30;;;;;;;;;;5000621;28;20137;-72
2023/07/25 03:20:06;;;;;;;7.68;2.92;;;;;;;;;;5001627;28;20045;-73
2023/07/25 03:22:32;;;;;;;4.50;2.85;;;;;;;;;;5001401;28;20057;-72
2023/07/25 03:24:57;;;;;;;6.53;2.63;;;;;;;;;;5003082;28;20045;-72
2023/07/25 03:27:25;;;;;;;2.75;2.30;;;;;;;;;;5008966;28;20141;-72
2023/07/25 03:29:50;;;;;;;3.35;2.65;;;;;;;;;;4999960;28;20164;-73
2023/07/25 03:32:16;;;;;;;3.10;2.45;;;;;;;;;;4999628;28;20149;-73
2023/07/25 03:34:41;;;;;;;5.38;2.55;;;;;;;;;;5003328;28;20392;-71
2023/07/25 03:37:07;;;;;;;5.35;2.67;;;;;;;;;;5005673;28;20054;-75
2023/07/25 03:39:33;;;;;;;3.25;2.60;;;;;;;;;;5008508;28;20161;-74
2023/07/25 03:41:58;;;;;;;2.67;2.20;;;;;;;;;;4983566;28;20141;-74
2023/07/25 03:44:23;;;;;;;2.95;2.42;;;;;;;;;;5003797;28;20578;-73
2023/07/25 03:46:49;;;;;;;3.63;2.13;;;;;;;;;;5001710;28;20207;-73
2023/07/25 03:49:14;;;;;;;3.33;2.40;;;;;;;;;;5005310;28;20045;-75
2023/07/25 03:51:40;;;;;;;4.60;2.13;;;;;;;;;;5001262;28;20069;-73
2023/07/25 03:54:06;;;;;;;6.57;2.40;;;;;;;;;;5004589;28;20049;-73
2023/07/25 03:56:32;;;;;;;3.50;2.75;;;;;;;;;;4981060;28;20077;-73
2023/07/25 03:59:01;;;;;;;4.03;2.72;;;;;;;;;;4998927;28;20049;-73
2023/07/25 04:01:27;;;;;;;2.78;2.22;;;;;;;;;;5005210;28;20038;-70
2023/07/25 04:03:53;;;;;;;3.65;2.40;;;;;;;;;;5003031;28;20130;-73
2023/07/25 04:06:18;;;;;;;4.22;2.50;;;;;;;;;;4999000;28;20569;-73
2023/07/25 04:08:44;;;;;;;5.10;2.53;;;;;;;;;;4998578;28;20045;-73
2023/07/25 04:11:12;;;;;;;3.65;2.97;;;;;;;;;;4998783;28;20056;-72
2023/07/25 04:13:37;;;;;;;3.40;2.40;;;;;;;;;;5002035;28;20125;-73
2023/07/25 04:16:03;;;;;;;4.18;2.85;;;;;;;;;;5006936;28;20041;-73
2023/07/25 04:18:28;;;;;;;3.33;2.55;;;;;;;;;;5005268;28;20771;-73
2023/07/25 04:20:54;;;;;;;3.08;2.35;;;;;;;;;;5006289;28;20050;-73
2023/07/25 04:23:21;;;;;;;5.68;2.45;;;;;;;;;;5004113;28;20073;-73
2023/07/25 04:25:48;;;;;;;3.58;2.97;;;;;;;;;;5008486;28;20038;-72
2023/07/25 04:28:13;;;;;;;3.55;2.53;;;;;;;;;;5005817;28;20049;-73
2023/07/25 04:30:39;;;;;;;3.47;2.58;;;;;;;;;;5015745;28;20581;-73
2023/07/25 04:33:05;;;;;;;2.75;2.42;;;;;;;;;;5003603;28;20046;-73
2023/07/25 04:35:30;;;;;;;5.20;2.88;;;;;;;;;;4986690;28;20037;-72
2023/07/25 04:37:55;;;;;;;6.35;2.92;;;;;;;;;;5005263;28;20418;-73
2023/07/25 04:40:21;;;;;;;5.28;2.95;;;;;;;;;;5004708;28;20466;-73
2023/07/25 04:42:46;;;;;;;3.67;2.60;;;;;;;;;;4999722;28;20037;-72
2023/07/25 04:45:12;;;;;;;3.42;2.78;;;;;;;;;;4983889;28;20100;-72
2023/07/25 04:47:37;;;;;;;2.88;2.58;;;;;;;;;;4999720;28;20100;-72
2023/07/25 04:50:03;;;;;;;4.50;2.97;;;;;;;;;;5003164;28;20443;-73
2023/07/25 04:52:29;;;;;;;4.22;3.15;;;;;;;;;;5009262;28;20140;-73
2023/07/25 04:54:57;;;;;;;3.75;2.92;;;;;;;;;;4998670;28;20050;-71
2023/07/25 04:57:26;;;;;;;3.90;3.10;;;;;;;;;;5021556;28;20179;-72
2023/07/25 04:59:52;;;;;;;3.97;3.03;;;;;;;;;;5009466;28;20639;-73
2023/07/25 05:02:20;;;;;;;5.03;3.20;;;;;;;;;;5004689;28;20046;-73
2023/07/25 05:04:46;;;;;;;8.02;3.00;;;;;;;;;;4997062;28;20045;-71
2023/07/25 05:07:13;;;;;;;7.03;3.38;;;;;;;;;;5006162;28;20046;-72
2023/07/25 05:09:38;;;;;;;4.18;2.70;;;;;;;;;;5000205;28;20052;-73
2023/07/25 05:12:05;;;;;;;7.20;3.33;;;;;;;;;;5003991;28;20057;-70
2023/07/25 05:14:30;;;;;;;3.78;2.60;;;;;;;;;;5003812;28;20171;-72
2023/07/25 05:16:56;;;;;;;3.72;2.80;;;;;;;;;;4998718;28;20144;-72
2023/07/25 05:19:23;;;;;;;6.40;2.80;;;;;;;;;;5007241;28;20050;-71
2023/07/25 05:21:49;;;;;;;7.15;3.03;;;;;;;;;;4999464;28;20048;-72
2023/07/25 05:24:15;;;;;;;5.47;2.70;;;;;;;;;;5000003;28;20285;-72
2023/07/25 05:26:41;;;;;;;4.00;2.88;;;;;;;;;;5001278;28;20102;-72
2023/07/25 05:29:06;;;;;;;3.25;2.17;;;;;;;;;;5003330;28;20045;-72
2023/07/25 05:31:32;;;;;;;2.60;2.33;;;;;;;;;;4986174;28;20092;-72
2023/07/25 05:33:57;;;;;;;2.22;1.85;;;;;;;;;;5003460;28;20077;-72
2023/07/25 05:36:23;;;;;;;3.38;2.10;;;;;;;;;;5000981;28;20052;-73
2023/07/25 05:38:48;;;;;;;5.80;2.20;;;;;;;;;;5010886;28;20104;-72
2023/07/25 05:41:13;;;;;;;2.75;2.05;;;;;;;;;;5010814;28;20045;-70
2023/07/25 05:43:39;;;;;;;2.28;1.98;;;;;;;;;;5002315;28;20141;-72
2023/07/25 05:46:04;;;;;;;3.22;2.17;;;;;;;;;;4999654;28;20034;-70
2023/07/25 05:48:30;;;;;;;3.15;2.22;;;;;;;;;;4998944;28;20053;-72
2023/07/25 05:50:55;;;;;;;3.45;2.10;;;;;;;;;;4998940;28;20676;-72
2023/07/25 05:53:21;;;;;;;3.08;2.03;;;;;;;;;;4998737;28;20050;-71
2023/07/25 05:55:46;;;;;;;5.03;1.92;;;;;;;;;;5000372;28;20081;-71
2023/07/25 05:58:16;;;;;;;2.78;2.15;;;;;;;;;;4999547;28;20064;-72
2023/07/25 06:00:43;;;;;;;3.90;2.35;;;;;;;;;;5004195;28;20058;-72
2023/07/25 06:03:13;;;;;;;2.95;2.33;;;;;;;;;;5000175;28;20712;-71
2023/07/25 06:05:39;;;;;;;3.13;2.60;;;;;;;;;;4999839;28;20046;-68
2023/07/25 06:08:05;;;;;;;3.30;2.70;;;;;;;;;;4997895;28;20095;-71
2023/07/25 06:10:31;;;;;;;2.75;2.40;;;;;;;;;;4999018;28;20049;-70
2023/07/25 06:12:56;;;;;;;4.40;2.53;;;;;;;;;;4999914;28;20056;-70
2023/07/25 06:15:22;;;;;;;5.55;2.33;;;;;;;;;;5001517;28;20046;-71
2023/07/25 06:17:47;;;;;;;3.28;2.05;;;;;;;;;;5004088;28;20530;-70
2023/07/25 06:20:13;;;;;;;3.05;2.40;;;;;;;;;;5010576;28;20046;-70
2023/07/25 06:22:39;;;;;;;3.22;2.17;;;;;;;;;;5005543;28;20077;-71
2023/07/25 06:25:07;;;;;;;3.72;2.03;;;;;;;;;;5003403;28;20483;-73
2023/07/25 06:27:33;;;;;;;3.65;2.38;;;;;;;;;;5003347;28;20038;-70
2023/07/25 06:29:58;;;;;;;3.55;2.00;;;;;;;;;;5002936;28;20414;-71
2023/07/25 06:32:24;;;;;;;2.28;1.75;;;;;;;;;;5004470;28;20077;-71
2023/07/25 06:34:49;;;;;;;2.85;2.05;;;;;;;;;;5003331;28;20045;-70
2023/07/25 06:37:14;;;;;;;4.25;2.45;;;;;;;;;;5003378;28;20053;-71
2023/07/25 06:39:40;;;;;;;3.25;2.20;;;;;;;;;;5003180;28;20105;-70
2023/07/25 06:42:06;;;;;;;2.30;1.95;;;;;;;;;;5002505;28;20050;-71
2023/07/25 06:44:33;;;;;;;4.45;1.73;;;;;;;;;;5003813;28;20068;-70
2023/07/25 06:46:58;;;;;;;2.38;2.17;;;;;;;;;;5001735;28;20073;-72
2023/07/25 06:49:24;;;;;;;2.35;2.08;;;;;;;;;;5001711;28;20316;-71
2023/07/25 06:51:49;;;;;;;3.15;2.42;;;;;;;;;;5002955;28;20061;-72
2023/07/25 06:54:15;;;;;;;3.92;2.17;;;;;;;;;;5002672;28;20061;-71
2023/07/25 06:56:40;;;;;;;3.17;2.50;;;;;;;;;;5003074;28;20451;-72
2023/07/25 06:59:05;;;;;;;4.70;2.88;;;;;;;;;;5002773;28;20046;-70
2023/07/25 07:01:31;;;;;;;3.28;2.20;;;;;;;;;;5001663;28;20750;-71
2023/07/25 07:03:56;;;;;;;2.75;2.17;;;;;;;;;;5002668;28;20466;-70
2023/07/25 07:06:22;;;;;;;4.85;1.83;;;;;;;;;;5001834;28;20522;-71
2023/07/25 07:08:48;;;;;;;6.20;2.03;;;;;;;;;;5002221;28;20046;-72
2023/07/25 07:11:13;;;;;;;2.40;1.90;;;;;;;;;;5002583;28;20045;-71
2023/07/25 07:13:38;;;;;;;5.53;2.50;;;;;;;;;;5001205;28;20038;-71
2023/07/25 07:16:04;;;;;;;2.83;2.08;;;;;;;;;;5001811;28;20473;-72
2023/07/25 07:18:29;;;;;;;2.83;2.08;;;;;;;;;;5000713;28;20108;-72
2023/07/25 07:20:55;;;;;;;3.13;2.30;;;;;;;;;;5002633;28;20529;-72
2023/07/25 07:23:20;;;;;;;2.42;1.95;;;;;;;;;;5004789;28;20049;-72
2023/07/25 07:25:46;;;;;;;5.00;2.20;;;;;;;;;;5002231;28;20547;-69
2023/07/25 07:28:11;;;;;;;4.65;2.33;;;;;;;;;;5000459;28;20050;-72
2023/07/25 07:30:37;;;;;;;3.45;2.17;;;;;;;;;;5000889;28;20038;-72
2023/07/25 07:33:03;;;;;;;2.85;2.50;;;;;;;;;;5002050;28;20503;-70
2023/07/25 07:35:28;;;;;;;6.47;2.78;;;;;;;;;;5000990;28;20574;-72
2023/07/25 07:37:53;;;;;;;4.20;2.70;;;;;;;;;;5003846;28;20041;-72
2023/07/25 07:40:19;;;;;;;4.07;2.53;;;;;;;;;;5001384;28;20133;-71
2023/07/25 07:42:44;;;;;;;6.25;2.70;;;;;;;;;;5002056;28;20054;-72
2023/07/25 07:45:10;;;;;;;5.18;2.60;;;;;;;;;;5009757;28;20064;-71
2023/07/25 07:47:35;;;;;;;3.95;2.50;;;;;;;;;;5001843;28;20046;-72
2023/07/25 07:50:00;;;;;;;4.82;2.50;;;;;;;;;;5001991;28;20056;-72
2023/07/25 07:52:30;;;;;;;5.60;2.30;;;;;;;;;;5003517;28;20054;-71
2023/07/25 07:54:56;;;;;;;5.82;2.50;;;;;;;;;;5008833;28;20049;-71
2023/07/25 07:57:21;;;;;;;3.58;2.20;;;;;;;;;;5000748;28;20050;-74
2023/07/25 07:59:47;;;;;;;9.07;2.30;;;;;;;;;;5002173;28;20081;-73
2023/07/25 08:02:12;;;;;;;2.88;2.35;;;;;;;;;;5001205;28;20042;-72
2023/07/25 08:04:37;;;;;;;2.13;1.90;;;;;;;;;;5000658;28;21069;-73
2023/07/25 08:07:03;;;;;;;4.05;2.30;;;;;;;;;;5003792;28;20056;-71
2023/07/25 08:09:28;;;;;;;4.45;2.33;;;;;;;;;;5001529;28;20049;-73
2023/07/25 08:11:54;;;;;;;4.80;2.28;;;;;;;;;;5001533;28;20077;-73
2023/07/25 08:14:19;;;;;;;4.45;2.80;;;;;;;;;;5000260;28;20122;-72
2023/07/25 08:16:45;;;;;;;2.95;2.47;;;;;;;;;;5010146;28;20041;-71
2023/07/25 08:19:10;;;;;;;3.05;2.08;;;;;;;;;;5010908;28;20041;-72
2023/07/25 08:21:36;;;;;;;2.10;1.90;;;;;;;;;;5009245;28;20084;-71
2023/07/25 08:24:01;;;;;;;1.75;1.60;;;;;;;;;;5011638;28;20042;-72
2023/07/25 08:26:27;;;;;;;3.33;1.95;;;;;;;;;;5009202;28;20138;-69
2023/07/25 08:28:52;;;;;;;2.85;2.13;;;;;;;;;;5007540;28;20050;-72
2023/07/25 08:31:17;;;;;;;2.80;1.90;;;;;;;;;;5007184;28;20056;-69
2023/07/25 08:33:44;;;;;;;2.45;2.10;;;;;;;;;;5025078;28;20044;-72
2023/07/25 08:36:10;;;;;;;3.25;2.35;;;;;;;;;;5009261;28;20053;-72
2023/07/25 08:38:36;;;;;;;3.55;2.30;;;;;;;;;;5009065;28;20115;-70
2023/07/25 08:41:09;;;;;;;7.75;2.40;;;;;;;;;;5011491;28;20056;-69
2023/07/25 08:43:38;;;;;;;3.72;2.45;;;;;;;;;;5010536;28;20037;-71
2023/07/25 08:46:07;;;;;;;2.47;1.70;;;;;;;;;;5008959;28;20053;-73
2023/07/25 08:48:36;;;;;;;2.17;1.95;;;;;;;;;;5010940;28;20477;-71
2023/07/25 08:51:05;;;;;;;4.45;1.95;;;;;;;;;;5011514;28;20045;-70
2023/07/25 08:53:32;;;;;;;2.42;1.60;;;;;;;;;;5008137;28;20081;-71
2023/07/25 08:55:58;;;;;;;3.47;1.58;;;;;;;;;;5012586;28;20072;-77
2023/07/25 08:58:24;;;;;;;1.50;1.40;;;;;;;;;;5002535;28;20088;-73
2023/07/25 09:00:50;;;;;;;3.33;1.67;;;;;;;;;;4998298;28;20041;-73
2023/07/25 09:03:19;;;;;;;1.60;1.50;;;;;;;;;;5005520;28;20042;-72
2023/07/25 09:05:45;;;;;;;1.90;1.20;;;;;;;;;;4998630;28;20096;-72
2023/07/25 09:08:10;;;;;;;2.03;1.70;;;;;;;;;;4999620;28;20042;-69
2023/07/25 09:10:36;;;;;;;1.85;1.52;;;;;;;;;;5000418;28;20601;-73
2023/07/25 09:13:02;;;;;;;1.85;1.38;;;;;;;;;;4999902;28;20049;-73
2023/07/25 09:15:27;;;;;;;2.92;1.50;;;;;;;;;;4997792;28;20509;-73
2023/07/25 09:17:53;;;;;;;1.67;1.40;;;;;;;;;;5002247;28;20046;-73
2023/07/25 09:20:19;;;;;;;1.60;1.20;;;;;;;;;;4999185;28;20048;-72
2023/07/25 09:22:48;;;;;;;1.55;1.45;;;;;;;;;;5005127;28;20043;-69
2023/07/25 09:25:14;;;;;;;1.65;1.45;;;;;;;;;;5015659;28;20052;-73
2023/07/25 09:27:46;;;;;;;6.47;1.45;;;;;;;;;;4997785;28;20511;-74
2023/07/25 09:30:13;;;;;;;1.50;1.30;;;;;;;;;;5007512;28;20045;-73
2023/07/25 09:32:43;;;;;;;1.80;1.50;;;;;;;;;;4998118;28;20046;-70
2023/07/25 09:35:10;;;;;;;1.98;1.48;;;;;;;;;;4997568;28;20060;-70
2023/07/25 09:37:35;;;;;;;2.40;1.35;;;;;;;;;;4997690;28;20041;-70
2023/07/25 09:40:00;;;;;;;1.48;1.25;;;;;;;;;;4994841;28;20125;-73
2023/07/25 09:42:26;;;;;;;1.98;1.65;;;;;;;;;;4996995;28;20045;-72
2023/07/25 09:44:53;;;;;;;1.73;1.63;;;;;;;;;;4998627;28;20170;-73
2023/07/25 09:47:23;;;;;;;2.30;1.58;;;;;;;;;;4997001;28;20053;-72
2023/07/25 09:49:50;;;;;;;1.40;1.30;;;;;;;;;;4998108;28;20103;-71
2023/07/25 09:52:16;;;;;;;2.08;1.80;;;;;;;;;;5001191;28;20487;-72
2023/07/25 09:54:42;;;;;;;3.33;2.65;;;;;;;;;;5001189;28;20563;-71
2023/07/25 09:57:08;;;;;;;2.17;1.38;;;;;;;;;;5000908;28;20040;-71
2023/07/25 09:59:35;;;;;;;3.80;1.70;;;;;;;;;;5004908;28;20457;-71
2023/07/25 10:02:00;;;;;;;2.42;1.73;;;;;;;;;;5009175;28;20785;-71
2023/07/25 10:04:27;;;;;;;6.70;2.92;;;;;;;;;;5011614;28;20042;-70
2023/07/25 10:06:52;;;;;;;4.55;3.00;;;;;;;;;;5002430;28;20125;-72
2023/07/25 10:09:18;;;;;;;7.32;3.15;;;;;;;;;;5001495;28;20038;-71
2023/07/25 10:11:44;;;;;;;7.43;2.90;;;;;;;;;;5003285;28;20105;-72
2023/07/25 10:14:10;;;;;;;3.47;2.22;;;;;;;;;;4999753;28;20096;-72
2023/07/25 10:16:37;;;;;;;5.85;1.42;;;;;;;;;;5000150;28;20053;-72
2023/07/25 10:19:05;;;;;;;2.92;1.83;;;;;;;;;;5007861;28;20049;-72
2023/07/25 10:21:49;;;;;;;2.20;1.70;;;;;;;;;;5005139;28;20108;-71
2023/07/25 10:24:15;;;;;;;2.33;1.50;;;;;;;;;;5004829;28;20041;-72
2023/07/25 10:26:56;;;;;;;2.00;1.50;;;;;;;;;;5007024;28;20049;-71
2023/07/25 10:29:41;;;;;;;3.33;1.55;;;;;;;;;;5005452;28;20049;-71
2023/07/25 10:32:08;;;;;;;1.30;1.20;;;;;;;;;;5009235;28;20042;-73
2023/07/25 10:34:43;;;;;;;2.25;1.73;;;;;;;;;;5009833;28;20037;-72
2023/07/25 10:37:19;;;;;;;2.65;1.45;;;;;;;;;;5003465;28;20053;-72
2023/07/25 10:39:44;;;;;;;4.15;1.30;;;;;;;;;;5010422;28;20073;-71
2023/07/25 10:42:45;;;;;;;1.75;1.40;;;;;;;;;;5001574;28;20196;-71
2023/07/25 10:45:28;;;;;;;4.05;1.23;;;;;;;;;;5005516;28;20050;-71
2023/07/25 10:47:59;;;;;;;1.77;1.25;;;;;;;;;;5001574;28;20517;-73
2023/07/25 10:50:27;;;;;;;2.28;1.75;;;;;;;;;;5002506;28;20058;-72
2023/07/25 10:52:53;;;;;;;4.03;1.30;;;;;;;;;;5001381;28;20053;-73
2023/07/25 10:55:19;;;;;;;2.10;1.30;;;;;;;;;;5002639;28;20050;-71
2023/07/25 10:58:09;;;;;;;3.20;1.40;;;;;;;;;;5003396;28;20052;-72
2023/07/25 11:00:36;;;;;;;4.68;1.35;;;;;;;;;;4992742;28;20060;-73
2023/07/25 11:03:28;;;;;;;1.52;1.08;;;;;;;;;;5020180;28;20074;-73
2023/07/25 11:06:06;;;;;;;2.13;1.30;;;;;;;;;;4991685;28;20964;-73
2023/07/25 11:08:37;;;;;;;3.30;1.20;;;;;;;;;;4994913;28;20556;-72
2023/07/25 11:11:10;;;;;;;;;;;;;;;;;;5002847;28;20046;-72
2023/07/25 11:13:38;;;;;;;3.45;1.27;;;;;;;;;;5017004;28;19925;-72
2023/07/25 11:16:04;;;;;;;1.58;1.10;;;;;;;;;;5000537;28;20384;-71
2023/07/25 11:18:33;;;;;;;1.48;1.08;;;;;;;;;;5000174;28;20056;-71
2023/07/25 11:21:03;;;;;;;0.70;0.70;;;;;;;;;;5002159;28;20115;-73
2023/07/25 11:23:29;;;;;;;1.60;1.42;;;;;;;;;;5002387;28;20119;-71
2023/07/25 11:25:56;;;;;;;1.58;1.10;;;;;;;;;;5002345;28;20081;-73
2023/07/25 11:28:22;;;;;;;2.95;1.00;;;;;;;;;;5004712;28;20045;-70
2023/07/25 11:30:47;;;;;;;3.13;1.10;;;;;;;;;;5003018;28;20056;-72
2023/07/25 11:33:13;;;;;;;1.50;1.40;;;;;;;;;;4998469;28;20621;-74
2023/07/25 11:35:38;;;;;;;1.40;1.00;;;;;;;;;;5002611;28;20041;-73
2023/07/25 11:38:04;;;;;;;2.67;1.02;;;;;;;;;;5002185;28;20703;-73
2023/07/25 11:40:31;;;;;;;1.30;0.90;;;;;;;;;;5003038;28;20515;-73
2023/07/25 11:42:57;;;;;;;1.40;0.90;;;;;;;;;;4999832;28;20406;-73
2023/07/25 11:45:23;;;;;;;1.10;1.00;;;;;;;;;;4999430;28;20934;-72
2023/07/25 11:47:50;;;;;;;1.10;1.00;;;;;;;;;;4997936;28;20041;-72
2023/07/25 11:50:16;;;;;;;1.38;1.13;;;;;;;;;;4999040;28;20080;-72
2023/07/25 11:52:43;;;;;;;1.88;0.90;;;;;;;;;;5000105;28;20804;-71
2023/07/25 11:55:10;;;;;;;1.55;1.45;;;;;;;;;;5000241;28;20069;-72
2023/07/25 11:57:37;;;;;;;3.17;0.75;;;;;;;;;;5000490;28;20042;-72
2023/07/25 12:00:06;;;;;;;2.50;1.85;;;;;;;;;;4997199;28;20164;-72
2023/07/25 12:02:38;;;;;;;0.90;0.90;;;;;;;;;;5000086;28;20050;-72
2023/07/25 12:05:04;;;;;;;1.25;1.00;;;;;;;;;;4997356;28;20111;-72
2023/07/25 12:07:53;;;;;;;1.00;0.90;;;;;;;;;;5011756;28;20037;-72
2023/07/25 12:10:33;;;;;;;2.00;1.38;;;;;;;;;;5000260;28;20058;-72
2023/07/25 12:13:00;;;;;;;1.30;1.20;;;;;;;;;;5004845;28;20085;-72
2023/07/25 12:15:45;;;;;;;3.75;0.95;;;;;;;;;;5006047;28;20071;-74
2023/07/25 12:18:35;;;;;;;2.90;0.80;;;;;;;;;;4998032;28;20045;-74
2023/07/25 12:21:02;;;;;;;1.00;0.93;;;;;;;;;;5003474;28;20586;-74
2023/07/25 12:23:38;;;;;;;1.02;0.88;;;;;;;;;;5007430;28;20139;-71
2023/07/25 12:26:04;;;;;;;3.80;0.80;;;;;;;;;;5006025;28;20571;-71
2023/07/25 12:28:44;;;;;;;1.15;1.05;;;;;;;;;;5008102;28;20103;-71
2023/07/25 12:31:10;;;;;;;1.35;0.80;;;;;;;;;;4998981;28;20041;-73
2023/07/25 12:33:36;;;;;;;1.00;0.90;;;;;;;;;;4998227;28;20049;-70
2023/07/25 12:36:02;;;;;;;2.72;1.00;;;;;;;;;;5007456;28;20937;-72
2023/07/25 12:38:27;;;;;;;1.83;0.80;;;;;;;;;;5008142;28;20084;-74
2023/07/25 12:40:53;;;;;;;2.08;0.90;;;;;;;;;;5002495;28;20053;-70
2023/07/25 12:43:19;;;;;;;0.95;0.85;;;;;;;;;;5001962;28;20042;-70
2023/07/25 12:45:45;;;;;;;0.95;0.80;;;;;;;;;;4998025;28;20791;-74
2023/07/25 12:48:11;;;;;;;9.23;1.42;;;;;;;;;;5000130;28;20046;-71
2023/07/25 12:50:39;;;;;;;4.13;1.25;;;;;;;;;;4998488;28;20160;-74
2023/07/25 12:53:05;;;;;;;1.17;0.95;;;;;;;;;;4999446;28;20060;-72
2023/07/25 12:55:30;;;;;;;2.30;1.05;;;;;;;;;;4999894;28;20049;-74
2023/07/25 12:57:56;;;;;;;1.77;0.98;;;;;;;;;;4998334;28;20049;-74
2023/07/25 13:00:21;;;;;;;1.25;1.00;;;;;;;;;;5001707;28;20142;-74
2023/07/25 13:02:47;;;;;;;1.20;0.85;;;;;;;;;;5001945;28;20049;-74
2023/07/25 13:05:12;;;;;;;0.75;0.75;;;;;;;;;;4999410;28;20545;-73
2023/07/25 13:07:37;;;;;;;2.55;1.38;;;;;;;;;;4991261;28;20045;-75
2023/07/25 13:10:06;;;;;;;1.70;1.02;;;;;;;;;;4998887;28;20783;-71
2023/07/25 13:12:31;;;;;;;2.10;1.00;;;;;;;;;;5000196;28;20072;-73
2023/07/25 13:14:57;;;;;;;1.20;1.10;;;;;;;;;;5011516;28;20058;-74
2023/07/25 13:17:22;;;;;;;1.42;1.10;;;;;;;;;;5006637;28;20061;-72
2023/07/25 13:19:48;;;;;;;3.05;1.15;;;;;;;;;;4982294;28;20137;-72
2023/07/25 13:22:13;;;;;;;1.30;1.10;;;;;;;;;;5012794;28;20426;-72
2023/07/25 13:24:39;;;;;;;2.33;1.10;;;;;;;;;;4999577;28;20057;-71
2023/07/25 13:27:04;;;;;;;2.13;1.20;;;;;;;;;;5014308;28;20073;-73
2023/07/25 13:29:30;;;;;;;1.23;1.08;;;;;;;;;;5015222;28;20168;-73
2023/07/25 13:31:55;;;;;;;2.22;1.20;;;;;;;;;;5009715;28;20122;-70
2023/07/25 13:34:22;;;;;;;1.38;1.17;;;;;;;;;;5006866;28;20144;-73
2023/07/25 13:36:47;;;;;;;2.38;1.20;;;;;;;;;;5020228;28;20510;-74
2023/07/25 13:39:13;;;;;;;1.20;1.10;;;;;;;;;;5004016;28;20081;-72
2023/07/25 13:41:38;;;;;;;3.95;1.05;;;;;;;;;;5003166;28;20053;-71
2023/07/25 13:44:04;;;;;;;3.90;0.93;;;;;;;;;;5014067;28;20037;-73
2023/07/25 13:46:29;;;;;;;2.67;1.00;;;;;;;;;;5002145;28;20562;-72
2023/07/25 13:48:55;;;;;;;4.60;1.15;;;;;;;;;;5008864;28;20057;-73
2023/07/25 13:51:20;;;;;;;1.98;0.82;;;;;;;;;;5001379;28;20041;-72
2023/07/25 13:53:46;;;;;;;1.00;0.90;;;;;;;;;;5004329;28;20052;-71
2023/07/25 13:56:11;;;;;;;0.90;0.90;;;;;;;;;;5003547;28;20046;-73
2023/07/25 13:58:36;;;;;;;1.20;1.10;;;;;;;;;;5011509;28;20053;-73
2023/07/25 14:01:02;;;;;;;1.50;1.20;;;;;;;;;;5003995;28;20041;-71
2023/07/25 14:03:27;;;;;;;1.25;0.95;;;;;;;;;;5004720;28;20554;-72
2023/07/25 14:05:53;;;;;;;2.10;0.95;;;;;;;;;;5006532;28;20449;-72
2023/07/25 14:08:19;;;;;;;1.00;0.90;;;;;;;;;;5005504;28;20553;-71
2023/07/25 14:10:44;;;;;;;1.05;0.93;;;;;;;;;;5005132;28;20041;-72
2023/07/25 14:13:09;;;;;;;1.77;1.00;;;;;;;;;;5009859;28;20128;-72
2023/07/25 14:15:35;;;;;;;0.80;0.80;;;;;;;;;;5008525;28;20037;-70
2023/07/25 14:18:01;;;;;;;0.77;0.77;;;;;;;;;;5004126;28;20059;-76
2023/07/25 14:20:27;;;;;;;1.88;1.13;;;;;;;;;;5005420;28;20449;-73
2023/07/25 14:22:53;;;;;;;1.27;0.90;;;;;;;;;;5009379;28;20458;-72
2023/07/25 14:25:18;;;;;;;2.60;1.25;;;;;;;;;;5009102;28;20049;-72
2023/07/25 14:27:44;;;;;;;1.30;1.20;;;;;;;;;;5016683;28;20410;-70
2023/07/25 14:30:09;;;;;;;1.88;1.10;;;;;;;;;;5005736;28;20742;-72
2023/07/25 14:32:35;;;;;;;1.23;1.05;;;;;;;;;;5009605;28;20041;-70
2023/07/25 14:35:00;;;;;;;1.10;1.00;;;;;;;;;;5005201;28;20410;-69
2023/07/25 14:37:26;;;;;;;0.90;0.80;;;;;;;;;;5001370;28;20049;-70
2023/07/25 14:39:52;;;;;;;0.82;0.82;;;;;;;;;;5003009;28;20061;-72